Terminal Aerodrome Forecast
Issued by NWS

Home | Current Version | Previous Version | Text Only | Print | Product List | Glossary On
Versions: 1 2 3 4 5 6 7 8 9 10 11 12 13 14 15 16 17 18 19 20 21 22 23
000
FTAK31 PANC 230531
TAFADU
TAF
PADU 230531Z 2306/2406 15010KT P6SM VCSH SCT025 BKN035
      TEMPO 2306/2309 15012G18KT -SHRA BKN025
     FM230900 15010KT P6SM -RA SCT015 BKN025
     FM231500 19005KT P6SM -SHRA BKN015
     FM232000 23008KT P6SM -SHRA SCT015 BKN025=

USA.gov is the U.S. government's official web portal to all federal, state and local government web resources and services.